createdAt,value
2018-01-26T00:01:16.495Z,6.96
2018-01-26T00:03:44.830Z,6.87
2018-01-26T00:06:13.140Z,6.84
2018-01-26T00:08:41.482Z,6.81
2018-01-26T00:11:09.791Z,6.80
2018-01-26T00:13:38.162Z,6.79
2018-01-26T00:16:06.478Z,6.78
2018-01-26T00:18:35.538Z,6.86
2018-01-26T00:21:03.882Z,6.81
2018-01-26T00:23:32.190Z,6.76
2018-01-26T00:26:00.538Z,6.76
2018-01-26T00:28:29.605Z,6.70
2018-01-26T00:30:58.714Z,6.67
2018-01-26T00:33:27.050Z,6.69
2018-01-26T00:35:55.410Z,6.81
2018-01-26T00:38:23.718Z,6.70
2018-01-26T00:40:52.068Z,6.64
2018-01-26T00:43:20.550Z,6.67
2018-01-26T00:45:49.658Z,6.72
2018-01-26T00:48:18.008Z,6.65
2018-01-26T00:50:46.344Z,6.61
2018-01-26T00:53:15.452Z,6.55
2018-01-26T00:55:43.773Z,6.49
2018-01-26T00:58:12.137Z,6.47
2018-01-26T01:00:41.220Z,6.38
2018-01-26T01:03:09.521Z,6.29
2018-01-26T01:05:37.871Z,6.26
2018-01-26T01:08:06.185Z,6.21
2018-01-26T01:10:34.534Z,5.96
2018-01-26T01:13:02.865Z,6.24
2018-01-26T01:15:31.940Z,6.19
2018-01-26T01:18:00.269Z,6.33
2018-01-26T01:20:28.625Z,6.37
2018-01-26T01:22:57.713Z,6.36
2018-01-26T01:25:26.815Z,6.28
2018-01-26T01:27:55.165Z,6.24
2018-01-26T01:30:23.508Z,6.22
2018-01-26T01:32:51.821Z,6.21
2018-01-26T01:35:20.146Z,6.19
2018-01-26T01:37:48.476Z,6.21
2018-01-26T01:40:17.558Z,6.23
2018-01-26T01:42:45.905Z,6.24
2018-01-26T01:45:14.213Z,6.27
2018-01-26T01:47:42.633Z,6.34
2018-01-26T01:50:11.337Z,6.34
2018-01-26T01:52:39.666Z,6.34
2018-01-26T01:55:08.229Z,6.35
2018-01-26T01:57:36.931Z,6.38
2018-01-26T02:00:05.642Z,6.29
2018-01-26T02:02:35.503Z,6.38
2018-01-26T02:05:03.867Z,6.38
2018-01-26T02:07:32.209Z,6.38
2018-01-26T02:10:01.329Z,6.44
2018-01-26T02:12:29.645Z,6.35
2018-01-26T02:14:57.985Z,6.38
2018-01-26T02:17:26.343Z,6.35
2018-01-26T02:19:55.466Z,6.31
2018-01-26T02:22:23.776Z,6.25
2018-01-26T02:24:52.125Z,6.32
2018-01-26T02:27:21.249Z,6.24
2018-01-26T02:29:49.604Z,6.25
2018-01-26T02:32:17.969Z,6.23
2018-01-26T02:34:46.325Z,6.18
2018-01-26T02:37:14.665Z,6.20
2018-01-26T02:39:43.010Z,6.22
2018-01-26T02:42:11.342Z,6.22
2018-01-26T02:44:40.467Z,6.22
2018-01-26T02:47:08.785Z,6.20
2018-01-26T02:49:37.107Z,6.18
2018-01-26T02:52:05.452Z,6.12
2018-01-26T02:54:34.593Z,6.13
2018-01-26T02:57:02.921Z,6.09
2018-01-26T02:59:31.283Z,6.14
2018-01-26T03:01:59.597Z,6.14
2018-01-26T03:04:28.724Z,6.10
2018-01-26T03:06:57.049Z,6.03
2018-01-26T03:09:25.415Z,6.02
2018-01-26T03:11:53.728Z,6.07
2018-01-26T03:14:22.817Z,5.88
2018-01-26T03:16:51.928Z,5.98
2018-01-26T03:19:20.240Z,5.96
2018-01-26T03:21:48.553Z,5.98
2018-01-26T03:24:16.913Z,5.94
2018-01-26T03:26:46.076Z,5.90
2018-01-26T03:29:15.558Z,5.85
2018-01-26T03:31:44.640Z,5.85
2018-01-26T03:34:13.745Z,5.83
2018-01-26T03:36:42.901Z,5.86
2018-01-26T03:39:11.604Z,5.81
2018-01-26T03:41:40.360Z,5.87
2018-01-26T03:44:08.713Z,5.92
2018-01-26T03:46:37.045Z,5.92
2018-01-26T03:49:05.456Z,5.91
2018-01-26T03:51:33.784Z,5.96
2018-01-26T03:54:02.083Z,5.90
2018-01-26T03:56:30.433Z,5.95
2018-01-26T03:58:59.166Z,6.03
2018-01-26T04:01:28.252Z,5.98
2018-01-26T04:03:57.364Z,6.02
2018-01-26T04:06:27.040Z,6.02
2018-01-26T04:08:56.130Z,6.00
2018-01-26T04:11:24.884Z,5.96
2018-01-26T04:13:53.640Z,5.96
2018-01-26T04:16:21.942Z,5.97
2018-01-26T04:18:50.252Z,6.00
2018-01-26T04:21:18.607Z,6.04
2018-01-26T04:23:46.968Z,6.10
2018-01-26T04:26:15.280Z,6.15
2018-01-26T04:28:43.596Z,6.15
2018-01-26T04:31:12.724Z,6.19
2018-01-26T04:33:41.064Z,6.19
2018-01-26T04:36:10.137Z,6.22
2018-01-26T04:38:38.493Z,6.21
2018-01-26T04:41:06.840Z,6.20
2018-01-26T04:43:35.196Z,6.22
2018-01-26T04:46:03.520Z,6.27
2018-01-26T04:48:31.872Z,6.33
2018-01-26T04:51:00.177Z,6.34
2018-01-26T04:53:28.524Z,6.28
2018-01-26T04:55:56.828Z,6.18
2018-01-26T04:58:25.166Z,6.18
2018-01-26T05:00:53.492Z,6.15
2018-01-26T05:03:21.836Z,6.08
2018-01-26T05:05:51.152Z,6.06
2018-01-26T05:08:19.475Z,6.05
2018-01-26T05:10:48.562Z,6.01
2018-01-26T05:13:17.714Z,5.96
2018-01-26T05:15:46.024Z,5.93
2018-01-26T05:18:14.352Z,5.99
2018-01-26T05:20:42.704Z,5.93
2018-01-26T05:23:11.787Z,6.00
2018-01-26T05:25:40.144Z,6.01
2018-01-26T05:28:08.452Z,5.99
2018-01-26T05:30:37.571Z,5.94
2018-01-26T05:33:05.895Z,5.95
2018-01-26T05:35:34.252Z,5.94
2018-01-26T05:38:02.548Z,5.96
2018-01-26T05:40:30.885Z,5.94
2018-01-26T05:42:59.220Z,5.93
2018-01-26T05:45:27.582Z,5.94
2018-01-26T05:47:55.907Z,5.95
2018-01-26T05:50:24.283Z,5.96
2018-01-26T05:52:52.603Z,5.99
2018-01-26T05:55:20.914Z,6.01
2018-01-26T05:57:49.255Z,6.05
2018-01-26T06:00:17.578Z,6.12
2018-01-26T06:02:46.703Z,6.11
2018-01-26T06:05:14.998Z,6.07
2018-01-26T06:07:43.307Z,6.10
2018-01-26T06:10:11.660Z,6.09
2018-01-26T06:12:40.037Z,6.12
2018-01-26T06:15:08.345Z,6.16
2018-01-26T06:17:37.285Z,6.18
2018-01-26T06:20:06.507Z,6.20
2018-01-26T06:22:34.851Z,6.21
2018-01-26T06:25:03.176Z,6.29
2018-01-26T06:27:31.533Z,6.23
2018-01-26T06:29:59.867Z,6.23
2018-01-26T06:32:28.209Z,6.14
2018-01-26T06:34:56.539Z,6.11
2018-01-26T06:37:24.929Z,6.29
2018-01-26T06:39:53.263Z,6.23
2018-01-26T06:42:22.725Z,6.31
2018-01-26T06:44:51.062Z,6.31
2018-01-26T06:47:19.407Z,6.33
2018-01-26T06:49:47.769Z,6.33
2018-01-26T06:52:16.090Z,6.35
2018-01-26T06:54:44.467Z,6.38
2018-01-26T06:57:12.804Z,6.41
2018-01-26T06:59:41.910Z,6.38
2018-01-26T07:02:10.241Z,6.39
2018-01-26T07:04:38.557Z,6.37
2018-01-26T07:07:06.903Z,6.39
2018-01-26T07:09:35.714Z,6.44
2018-01-26T07:12:04.058Z,6.39
2018-01-26T07:14:33.140Z,6.41
2018-01-26T07:17:01.514Z,6.40
2018-01-26T07:19:29.823Z,6.46
2018-01-26T07:21:58.139Z,6.47
2018-01-26T07:24:26.478Z,6.54
2018-01-26T07:26:54.780Z,6.54
2018-01-26T07:29:23.123Z,6.56
2018-01-26T07:31:51.456Z,6.52
2018-01-26T07:34:20.573Z,6.59
2018-01-26T07:36:48.905Z,6.65
2018-01-26T07:39:17.272Z,6.70
2018-01-26T07:41:45.584Z,6.72
2018-01-26T07:44:14.659Z,6.75
2018-01-26T07:46:43.002Z,6.70
2018-01-26T07:49:11.354Z,6.87
2018-01-26T07:51:39.670Z,6.90
2018-01-26T07:54:08.034Z,6.97
2018-01-26T07:56:36.351Z,7.04
2018-01-26T07:59:04.682Z,7.00
2018-01-26T08:01:33.926Z,7.07
2018-01-26T08:04:02.292Z,7.09
2018-01-26T08:06:30.645Z,7.02
2018-01-26T08:08:58.980Z,7.06
2018-01-26T08:11:28.937Z,7.19
2018-01-26T08:13:57.275Z,7.18
2018-01-26T08:16:26.376Z,7.29
2018-01-26T08:18:54.722Z,7.35
2018-01-26T08:21:23.029Z,7.28
2018-01-26T08:23:51.384Z,7.41
2018-01-26T08:26:20.460Z,7.42
2018-01-26T08:28:48.836Z,7.33
2018-01-26T08:31:17.158Z,7.31
2018-01-26T08:33:45.523Z,7.47
2018-01-26T08:36:14.638Z,7.59
2018-01-26T08:38:42.944Z,7.73
2018-01-26T08:41:11.348Z,7.74
2018-01-26T08:43:39.658Z,7.78
2018-01-26T08:46:08.765Z,7.86
2018-01-26T08:48:37.114Z,7.92
2018-01-26T08:51:06.228Z,7.94
2018-01-26T08:53:34.546Z,7.91
2018-01-26T08:56:02.915Z,8.05
2018-01-26T08:58:31.251Z,8.11
2018-01-26T09:01:00.366Z,8.14
2018-01-26T09:03:28.666Z,8.18
2018-01-26T09:05:57.011Z,8.35
2018-01-26T09:08:25.308Z,8.51
2018-01-26T09:10:53.637Z,8.50
2018-01-26T09:13:22.926Z,8.43
2018-01-26T09:15:51.285Z,8.67
2018-01-26T09:18:19.626Z,8.80
2018-01-26T09:20:47.971Z,8.75
2018-01-26T09:23:16.299Z,8.85
2018-01-26T09:25:44.624Z,8.90
2018-01-26T09:28:12.982Z,9.00
2018-01-26T09:30:41.295Z,9.17
2018-01-26T09:33:09.672Z,9.14
2018-01-26T09:35:38.738Z,9.07
2018-01-26T09:38:07.081Z,9.11
2018-01-26T09:40:35.458Z,9.01
2018-01-26T09:43:03.782Z,9.13
2018-01-26T09:45:32.127Z,9.28
2018-01-26T09:48:00.450Z,9.20
2018-01-26T09:50:29.560Z,9.14
2018-01-26T09:52:57.896Z,9.49
2018-01-26T09:55:27.352Z,9.21
2018-01-26T09:57:55.712Z,9.47
2018-01-26T10:00:24.832Z,9.77
2018-01-26T10:02:53.139Z,9.97
2018-01-26T10:05:21.503Z,9.80
2018-01-26T10:07:49.815Z,9.71
2018-01-26T10:10:18.117Z,9.77
2018-01-26T10:12:47.219Z,9.41
2018-01-26T10:15:15.532Z,9.70
2018-01-26T10:17:43.891Z,9.54
2018-01-26T10:20:12.238Z,9.48
2018-01-26T10:22:41.365Z,9.73
2018-01-26T10:25:09.685Z,9.81
2018-01-26T10:27:38.034Z,10.09
2018-01-26T10:30:06.351Z,9.92
2018-01-26T10:32:35.494Z,10.01
2018-01-26T10:35:03.812Z,10.19
2018-01-26T10:37:32.137Z,10.00
2018-01-26T10:40:00.481Z,10.04
2018-01-26T10:42:29.575Z,10.22
2018-01-26T10:44:58.711Z,10.04
2018-01-26T10:47:27.028Z,10.12
2018-01-26T10:49:55.387Z,9.90
2018-01-26T10:52:23.697Z,9.95
2018-01-26T10:54:52.021Z,9.83
2018-01-26T10:57:20.377Z,10.16
2018-01-26T10:59:48.701Z,10.01
2018-01-26T11:02:17.065Z,10.17
2018-01-26T11:04:45.409Z,10.32
2018-01-26T11:07:14.550Z,10.79
2018-01-26T11:09:42.993Z,10.56
2018-01-26T11:12:11.413Z,10.44
2018-01-26T11:14:39.925Z,10.73
2018-01-26T11:17:08.279Z,10.27
2018-01-26T11:19:36.653Z,10.32
2018-01-26T11:22:04.973Z,10.54
2018-01-26T11:24:34.092Z,10.60
2018-01-26T11:27:02.446Z,10.58
2018-01-26T11:29:30.789Z,10.68
2018-01-26T11:31:59.198Z,10.72
2018-01-26T11:34:28.331Z,10.52
2018-01-26T11:36:56.651Z,10.33
2018-01-26T11:39:24.977Z,10.16
2018-01-26T11:41:53.336Z,10.08
2018-01-26T11:44:21.729Z,10.19
2018-01-26T11:46:50.085Z,10.30
2018-01-26T11:49:19.188Z,10.48
2018-01-26T11:51:47.542Z,10.48
2018-01-26T11:54:15.868Z,10.43
2018-01-26T11:56:44.241Z,10.60
2018-01-26T11:59:12.600Z,10.59
2018-01-26T12:01:41.123Z,10.36
2018-01-26T12:04:09.673Z,10.27
2018-01-26T12:06:39.184Z,8.23
2018-01-26T12:09:07.562Z,10.68
2018-01-26T12:11:35.984Z,10.75
2018-01-26T12:14:04.298Z,10.83
2018-01-26T12:16:32.619Z,10.83
2018-01-26T12:19:00.974Z,10.70
2018-01-26T12:21:29.339Z,10.80
2018-01-26T12:23:57.704Z,10.76
2018-01-26T12:26:26.808Z,10.68
2018-01-26T12:28:55.176Z,10.70
2018-01-26T12:31:24.276Z,10.71
2018-01-26T12:33:53.394Z,10.91
2018-01-26T12:36:21.756Z,10.72
2018-01-26T12:38:50.122Z,10.85
2018-01-26T12:41:18.476Z,10.86
2018-01-26T12:43:46.840Z,11.01
2018-01-26T12:46:15.201Z,10.89
2018-01-26T12:48:43.564Z,10.87
2018-01-26T12:51:11.900Z,10.70
2018-01-26T12:53:41.022Z,10.48
2018-01-26T12:56:09.352Z,10.46
2018-01-26T12:58:37.740Z,10.75
2018-01-26T13:01:06.164Z,10.66
2018-01-26T13:03:34.522Z,10.71
2018-01-26T13:06:03.613Z,10.81
2018-01-26T13:08:32.738Z,10.76
2018-01-26T13:11:01.079Z,10.76
2018-01-26T13:13:30.190Z,10.72
2018-01-26T13:15:58.540Z,10.39
2018-01-26T13:18:26.852Z,10.56
2018-01-26T13:20:55.213Z,10.44
2018-01-26T13:23:24.309Z,10.45
2018-01-26T13:25:53.431Z,10.50
2018-01-26T13:28:21.807Z,10.58
2018-01-26T13:30:50.160Z,10.35
2018-01-26T13:33:19.268Z,10.23
2018-01-26T13:35:47.618Z,10.22
2018-01-26T13:38:16.722Z,10.19
2018-01-26T13:40:45.847Z,10.12
2018-01-26T13:43:14.202Z,10.13
2018-01-26T13:45:43.304Z,10.18
2018-01-26T13:48:12.422Z,9.92
2018-01-26T13:50:40.730Z,9.98
2018-01-26T13:53:09.074Z,10.04
2018-01-26T13:55:37.430Z,10.11
2018-01-26T13:58:06.537Z,10.02
2018-01-26T14:00:34.927Z,9.99
2018-01-26T14:03:03.250Z,9.86
2018-01-26T14:05:31.605Z,9.78
2018-01-26T14:07:59.961Z,9.79
2018-01-26T14:10:28.279Z,9.76
2018-01-26T14:12:56.605Z,9.66
2018-01-26T14:15:24.966Z,9.68
2018-01-26T14:17:54.791Z,9.72
2018-01-26T14:20:23.136Z,9.69
2018-01-26T14:22:51.499Z,9.71
2018-01-26T14:25:19.827Z,9.78
2018-01-26T14:27:48.175Z,9.91
2018-01-26T14:30:17.327Z,9.92
2018-01-26T14:32:45.646Z,9.81
2018-01-26T14:35:14.783Z,9.80
2018-01-26T14:37:43.096Z,9.72
2018-01-26T14:40:11.423Z,9.56
2018-01-26T14:42:39.764Z,9.53
2018-01-26T14:45:08.075Z,9.55
2018-01-26T14:47:36.421Z,9.53
2018-01-26T14:50:04.729Z,9.51
2018-01-26T14:52:33.062Z,9.51
2018-01-26T14:55:01.369Z,9.38
2018-01-26T14:57:30.531Z,9.33
2018-01-26T14:59:59.284Z,9.24
2018-01-26T15:02:27.597Z,9.19
2018-01-26T15:04:55.970Z,9.14
2018-01-26T15:07:24.287Z,9.07
2018-01-26T15:09:53.373Z,8.93
2018-01-26T15:12:22.483Z,8.93
2018-01-26T15:14:50.821Z,8.88
2018-01-26T15:17:19.160Z,8.76
2018-01-26T15:19:47.848Z,8.63
2018-01-26T15:22:16.266Z,8.62
2018-01-26T15:24:45.391Z,8.50
2018-01-26T15:27:13.747Z,8.41
2018-01-26T15:29:42.902Z,8.31
2018-01-26T15:32:11.274Z,8.28
2018-01-26T15:34:40.073Z,8.22
2018-01-26T15:37:08.452Z,8.27
2018-01-26T15:39:36.777Z,8.27
2018-01-26T15:42:05.170Z,8.24
2018-01-26T15:44:33.544Z,8.19
2018-01-26T15:47:01.929Z,8.18
2018-01-26T15:49:30.361Z,8.23
2018-01-26T15:51:59.167Z,8.21
2018-01-26T15:54:27.634Z,8.27
2018-01-26T15:56:55.974Z,8.25
2018-01-26T15:59:24.336Z,8.21
2018-01-26T16:01:54.605Z,8.20
2018-01-26T16:04:23.239Z,8.19
2018-01-26T16:06:52.150Z,8.21
2018-01-26T16:09:20.514Z,8.20
2018-01-26T16:11:56.626Z,8.17
2018-01-26T16:14:24.944Z,8.19
2018-01-26T16:16:54.025Z,8.22
2018-01-26T16:19:22.580Z,8.20
2018-01-26T16:21:50.968Z,8.15
2018-01-26T16:24:19.451Z,8.15
2018-01-26T16:26:47.793Z,8.14
2018-01-26T16:29:16.181Z,8.19
2018-01-26T16:31:44.899Z,8.17
2018-01-26T16:34:14.095Z,8.20
2018-01-26T16:36:43.325Z,8.14
2018-01-26T16:39:11.766Z,8.19
2018-01-26T16:41:40.928Z,8.21
2018-01-26T16:44:09.251Z,8.21
2018-01-26T16:46:38.642Z,8.22
2018-01-26T16:49:08.823Z,8.21
2018-01-26T16:51:45.072Z,8.21
2018-01-26T16:54:18.452Z,8.22
2018-01-26T16:56:57.244Z,8.11
2018-01-26T16:59:26.428Z,8.17
2018-01-26T17:01:54.753Z,8.15
2018-01-26T17:04:23.114Z,8.18
2018-01-26T17:06:51.876Z,8.21
2018-01-26T17:09:20.278Z,8.20
2018-01-26T17:11:49.494Z,8.21
2018-01-26T17:14:17.825Z,8.21
2018-01-26T17:16:46.183Z,8.22
2018-01-26T17:19:16.885Z,8.23
2018-01-26T17:21:45.366Z,8.23
2018-01-26T17:24:14.843Z,8.27
2018-01-26T17:26:43.197Z,8.22
2018-01-26T17:29:11.555Z,8.22
2018-01-26T17:31:39.886Z,8.24
2018-01-26T17:34:09.062Z,8.25
2018-01-26T17:36:37.410Z,8.23
2018-01-26T17:39:05.793Z,8.25
2018-01-26T17:41:34.150Z,8.27
2018-01-26T17:44:03.240Z,8.29
2018-01-26T17:46:31.619Z,8.28
2018-01-26T17:49:00.717Z,8.29
2018-01-26T17:51:29.132Z,8.31
2018-01-26T17:53:57.470Z,8.32
2018-01-26T17:56:26.566Z,8.31
2018-01-26T17:58:55.144Z,8.28
2018-01-26T18:01:23.463Z,8.25
2018-01-26T18:03:51.826Z,8.28
2018-01-26T18:06:20.149Z,8.31
2018-01-26T18:08:49.276Z,8.28
2018-01-26T18:11:17.597Z,8.26
2018-01-26T18:13:45.963Z,8.22
2018-01-26T18:16:14.360Z,8.27
2018-01-26T18:18:43.485Z,8.26
2018-01-26T18:21:11.829Z,8.29
2018-01-26T18:23:40.300Z,8.26
2018-01-26T18:26:09.595Z,8.27
2018-01-26T18:28:38.085Z,8.29
2018-01-26T18:31:07.918Z,8.28
2018-01-26T18:33:36.283Z,8.29
2018-01-26T18:36:05.465Z,8.28
2018-01-26T18:38:34.785Z,8.27
2018-01-26T18:41:03.366Z,8.25
2018-01-26T18:43:32.524Z,8.24
2018-01-26T18:46:00.929Z,8.26
2018-01-26T18:48:30.154Z,8.24
2018-01-26T18:50:58.593Z,8.20
2018-01-26T18:53:28.153Z,8.23
2018-01-26T18:55:56.681Z,8.24
2018-01-26T18:58:25.128Z,8.14
2018-01-26T19:00:54.944Z,8.21
2018-01-26T19:03:23.437Z,8.26
2018-01-26T19:05:51.980Z,8.24
2018-01-26T19:08:22.026Z,8.23
2018-01-26T19:10:50.664Z,8.22
2018-01-26T19:13:18.991Z,8.20
2018-01-26T19:15:47.358Z,8.20
2018-01-26T19:18:16.149Z,8.19
2018-01-26T19:20:44.472Z,8.17
2018-01-26T19:23:12.800Z,8.14
2018-01-26T19:25:41.474Z,8.16
2018-01-26T19:28:09.880Z,8.09
2018-01-26T19:30:40.233Z,8.07
2018-01-26T19:33:08.920Z,8.18
2018-01-26T19:35:37.292Z,8.14
2018-01-26T19:38:05.623Z,8.12
2018-01-26T19:40:34.183Z,8.12
2018-01-26T19:43:03.948Z,8.09
2018-01-26T19:45:32.386Z,8.07
2018-01-26T19:48:01.465Z,8.07
2018-01-26T19:50:30.589Z,8.07
2018-01-26T19:52:58.954Z,8.08
2018-01-26T19:55:27.467Z,8.12
2018-01-26T19:57:55.811Z,8.09
2018-01-26T20:00:24.139Z,8.08
2018-01-26T20:02:52.508Z,8.08
2018-01-26T20:05:44.056Z,8.05
2018-01-26T20:08:28.853Z,8.06
2018-01-26T20:10:57.203Z,8.03
2018-01-26T20:13:28.666Z,8.05
2018-01-26T20:15:58.003Z,8.09
2018-01-26T20:18:26.597Z,8.13
2018-01-26T20:20:55.859Z,8.11
2018-01-26T20:23:27.009Z,8.12
2018-01-26T20:25:55.562Z,8.11
2018-01-26T20:28:24.187Z,8.10
2018-01-26T20:30:52.838Z,8.08
2018-01-26T20:33:22.828Z,8.09
2018-01-26T20:35:51.177Z,8.10
2018-01-26T20:38:20.344Z,8.08
2018-01-26T20:40:48.691Z,8.09
2018-01-26T20:43:17.072Z,8.10
2018-01-26T20:45:45.421Z,8.11
2018-01-26T20:48:14.332Z,8.14
2018-01-26T20:50:42.690Z,8.16
2018-01-26T20:53:11.055Z,8.18
2018-01-26T20:55:40.305Z,8.19
2018-01-26T20:58:09.427Z,8.18
2018-01-26T21:00:37.818Z,8.19
2018-01-26T21:03:06.144Z,8.18
2018-01-26T21:05:34.538Z,8.18
2018-01-26T21:08:04.537Z,8.18
2018-01-26T21:10:32.884Z,8.18
2018-01-26T21:13:01.304Z,8.14
2018-01-26T21:15:30.446Z,8.13
2018-01-26T21:17:58.787Z,8.13
2018-01-26T21:20:27.547Z,8.16
2018-01-26T21:22:55.872Z,8.16
2018-01-26T21:25:24.236Z,8.17
2018-01-26T21:27:53.336Z,8.14
2018-01-26T21:30:22.459Z,8.11
2018-01-26T21:32:50.799Z,8.11
2018-01-26T21:35:20.672Z,8.07
2018-01-26T21:37:49.046Z,8.10
2018-01-26T21:40:17.474Z,8.05
2018-01-26T21:42:46.558Z,8.04
2018-01-26T21:45:15.970Z,8.04
2018-01-26T21:47:45.086Z,8.06
2018-01-26T21:50:14.457Z,8.05
2018-01-26T21:52:43.591Z,8.06
2018-01-26T21:55:12.360Z,8.06
2018-01-26T21:57:40.808Z,8.04
2018-01-26T22:00:09.176Z,8.07
2018-01-26T22:02:37.516Z,8.04
2018-01-26T22:05:11.345Z,7.99
2018-01-26T22:07:39.662Z,7.95
2018-01-26T22:10:10.592Z,7.97
2018-01-26T22:12:38.938Z,7.99
2018-01-26T22:15:07.245Z,7.98
2018-01-26T22:17:35.594Z,7.97
2018-01-26T22:20:04.015Z,7.95
2018-01-26T22:22:33.196Z,7.95
2018-01-26T22:25:01.506Z,7.96
2018-01-26T22:27:29.904Z,7.94
2018-01-26T22:29:58.251Z,7.94
2018-01-26T22:32:27.472Z,7.89
2018-01-26T22:34:56.199Z,7.89
2018-01-26T22:37:24.553Z,7.88
2018-01-26T22:39:52.886Z,7.86
2018-01-26T22:42:22.861Z,7.83
2018-01-26T22:44:51.235Z,7.84
2018-01-26T22:47:19.559Z,7.81
2018-01-26T22:49:48.673Z,7.82
2018-01-26T22:52:16.990Z,7.82
2018-01-26T22:54:45.359Z,7.81
2018-01-26T22:57:13.683Z,7.80
2018-01-26T22:59:42.819Z,7.79
2018-01-26T23:02:11.121Z,7.80
2018-01-26T23:04:39.489Z,7.77
2018-01-26T23:07:07.809Z,7.74
2018-01-26T23:09:36.946Z,7.78
2018-01-26T23:12:05.317Z,7.75
2018-01-26T23:14:34.103Z,7.72
2018-01-26T23:17:02.463Z,7.75
2018-01-26T23:19:30.797Z,7.71
2018-01-26T23:21:59.153Z,7.66
2018-01-26T23:24:27.462Z,7.73
2018-01-26T23:26:55.792Z,7.73
2018-01-26T23:29:24.133Z,7.65
2018-01-26T23:31:52.463Z,7.77
2018-01-26T23:34:20.815Z,7.73
2018-01-26T23:36:53.466Z,7.73
2018-01-26T23:39:22.599Z,7.74
2018-01-26T23:41:50.941Z,7.79
2018-01-26T23:44:20.018Z,7.80
2018-01-26T23:46:48.375Z,7.82
2018-01-26T23:49:16.670Z,7.82
2018-01-26T23:51:45.032Z,7.81
2018-01-26T23:54:13.406Z,7.76
2018-01-26T23:56:41.723Z,7.77
2018-01-26T23:59:10.438Z,7.75
